Time;durP1;ratioP1;P1;durP2;ratioP2;P2;SDS_P1;SDS_P2;PMS_P1;PMS_P2;Temp;Humidity;BMP_temperature;BMP_pressure;BME280_temperature;BME280_humidity;BME280_pressure;Samples;Min_cycle;Max_cycle;Signal;HPM_P1;HPM_P2
2024/02/22 00:01:55;;;;;;;15.50;7.90;;;;;;;4.53;84.75;98388.23;226912;1273;25261;-73
2024/02/22 00:07:01;;;;;;;13.20;7.80;;;;;;;4.53;84.61;98384.75;226930;1274;22607;-71
2024/02/22 00:12:04;;;;;;;12.50;7.00;;;;;;;4.53;84.47;98382.26;226820;1268;22548;-73
2024/02/22 00:17:06;;;;;;;15.00;8.10;;;;;;;4.52;84.52;98374.34;226941;1271;22536;-72
2024/02/22 00:22:10;;;;;;;13.60;7.40;;;;;;;4.48;84.50;98367.75;226964;1268;24500;-73
2024/02/22 00:27:12;;;;;;;14.30;7.10;;;;;;;4.44;84.40;98365.95;226705;1273;23043;-73
2024/02/22 00:32:18;;;;;;;16.60;8.30;;;;;;;4.40;84.60;98355.41;226765;1270;22559;-73
2024/02/22 00:37:20;;;;;;;15.00;7.70;;;;;;;4.36;84.50;98342.41;226850;1269;24277;-73
2024/02/22 00:42:22;;;;;;;14.00;6.80;;;;;;;4.34;84.70;98336.48;226851;1267;22557;-73
2024/02/22 00:47:24;;;;;;;12.80;6.60;;;;;;;4.36;84.61;98333.83;226966;1270;22594;-73
2024/02/22 00:52:26;;;;;;;15.10;7.70;;;;;;;4.40;84.38;98327.83;226948;1267;22553;-73
2024/02/22 00:57:28;;;;;;;16.10;8.00;;;;;;;4.42;84.71;98319.95;226736;1274;22569;-73
2024/02/22 01:02:30;;;;;;;14.10;8.50;;;;;;;4.42;84.62;98304.44;226885;1274;22554;-74
2024/02/22 01:07:32;;;;;;;13.70;7.70;;;;;;;4.42;84.80;98291.02;226733;1272;24285;-73
2024/02/22 01:12:34;;;;;;;14.40;7.80;;;;;;;4.42;84.65;98285.63;226930;1271;22644;-74
2024/02/22 01:17:36;;;;;;;11.40;6.80;;;;;;;4.42;84.38;98272.69;226741;1274;22551;-73
2024/02/22 01:22:39;;;;;;;13.20;7.00;;;;;;;4.45;84.51;98261.95;226691;1273;22546;-74
2024/02/22 01:27:42;;;;;;;15.60;8.00;;;;;;;4.49;84.50;98251.02;226887;1274;23173;-73
2024/02/22 01:32:44;;;;;;;16.50;8.10;;;;;;;4.53;84.40;98239.14;226947;1267;22539;-73
2024/02/22 01:37:46;;;;;;;15.20;7.90;;;;;;;4.60;84.22;98234.92;226962;1274;22554;-72
2024/02/22 01:42:49;;;;;;;12.50;7.60;;;;;;;4.68;84.11;98231.26;226847;1271;22590;-72
2024/02/22 01:47:52;;;;;;;14.50;8.10;;;;;;;4.75;84.04;98222.27;226889;1272;22567;-73
2024/02/22 01:52:55;;;;;;;14.20;7.90;;;;;;;4.81;83.62;98212.92;226879;1271;24457;-72
2024/02/22 01:57:57;;;;;;;16.20;8.20;;;;;;;4.81;83.55;98198.92;226900;1264;22585;-73
2024/02/22 02:03:00;;;;;;;14.30;7.20;;;;;;;4.80;83.56;98188.98;226908;1271;22559;-73
2024/02/22 02:08:02;;;;;;;12.90;7.60;;;;;;;4.79;83.55;98182.77;226711;1272;25376;-73
2024/02/22 02:13:05;;;;;;;12.50;7.20;;;;;;;4.77;83.65;98168.21;226566;1273;224590;-74
2024/02/22 02:18:07;;;;;;;11.90;7.20;;;;;;;4.78;83.54;98161.77;226769;1268;22566;-73
2024/02/22 02:23:25;;;;;;;13.40;7.50;;;;;;;4.81;83.34;98161.77;226931;1273;22536;-72
2024/02/22 02:28:27;;;;;;;14.90;7.70;;;;;;;4.85;83.31;98157.64;226930;1267;22535;-74
2024/02/22 02:33:29;;;;;;;15.10;7.10;;;;;;;4.87;83.09;98151.77;226876;1267;22626;-74
2024/02/22 02:38:31;;;;;;;11.60;7.20;;;;;;;4.88;82.92;98153.23;226902;1272;22626;-72
2024/02/22 02:43:33;;;;;;;12.10;6.50;;;;;;;4.90;83.03;98152.18;226775;1275;22551;-72
2024/02/22 02:48:35;;;;;;;11.30;6.20;;;;;;;4.93;82.82;98150.35;226895;1275;22589;-74
2024/02/22 02:53:37;;;;;;;11.50;6.30;;;;;;;4.95;82.82;98138.92;226918;1271;25253;-72
2024/02/22 02:58:39;;;;;;;11.00;6.70;;;;;;;4.96;82.76;98131.17;226861;1271;22543;-73
2024/02/22 03:03:41;;;;;;;12.80;6.40;;;;;;;4.94;82.66;98116.67;226918;1268;22543;-73
2024/02/22 03:08:43;;;;;;;11.30;6.20;;;;;;;4.90;82.59;98110.67;226838;1268;22544;-73
2024/02/22 03:13:44;;;;;;;12.70;6.30;;;;;;;4.88;82.55;98108.90;226895;1273;22583;-72
2024/02/22 03:18:47;;;;;;;13.20;6.30;;;;;;;4.87;82.59;98100.27;226698;1273;22569;-73
2024/02/22 03:23:51;;;;;;;9.70;5.70;;;;;;;4.90;82.56;98097.17;226884;1273;22543;-73
2024/02/22 03:28:53;;;;;;;10.60;5.20;;;;;;;4.93;82.42;98092.80;226927;1260;22563;-72
2024/02/22 03:33:55;;;;;;;11.10;5.40;;;;;;;4.98;82.16;98093.28;226893;1274;22587;-73
2024/02/22 03:38:57;;;;;;;7.10;4.50;;;;;;;5.05;82.20;98091.98;226871;1271;25298;-74
2024/02/22 03:43:59;;;;;;;7.10;4.50;;;;;;;5.13;82.01;98086.21;226906;1268;22851;-73
2024/02/22 03:49:02;;;;;;;9.10;4.70;;;;;;;5.22;82.04;98076.95;226863;1273;22579;-73
2024/02/22 03:54:04;;;;;;;8.00;4.70;;;;;;;5.31;81.85;98065.28;226946;1271;22543;-73
2024/02/22 03:59:06;;;;;;;9.20;4.90;;;;;;;5.38;81.56;98067.33;226780;1273;23009;-75
2024/02/22 04:04:08;;;;;;;8.20;4.90;;;;;;;5.45;81.39;98063.92;226927;1274;22560;-72
2024/02/22 04:09:10;;;;;;;7.30;5.10;;;;;;;5.51;81.32;98055.49;226942;1273;22976;-72
2024/02/22 04:14:13;;;;;;;7.50;4.50;;;;;;;5.57;81.41;98051.63;226788;1273;22547;-73
2024/02/22 04:19:15;;;;;;;10.10;6.20;;;;;;;5.64;81.14;98054.68;226893;1274;22549;-73
2024/02/22 04:24:20;;;;;;;7.90;5.00;;;;;;;5.71;81.10;98047.95;226887;1271;22558;-73
2024/02/22 04:29:22;;;;;;;8.00;4.80;;;;;;;5.80;81.00;98043.70;226858;1271;22650;-73
2024/02/22 04:34:24;;;;;;;7.00;4.50;;;;;;;5.88;80.70;98043.25;226849;1274;22561;-73
2024/02/22 04:39:26;;;;;;;7.20;4.70;;;;;;;5.95;80.73;98039.92;226921;1274;23674;-73
2024/02/22 04:44:28;;;;;;;9.10;6.30;;;;;;;6.02;80.61;98029.95;226893;1269;22551;-73
2024/02/22 04:49:30;;;;;;;12.30;6.50;;;;;;;6.03;80.19;98033.33;226828;1269;25330;-73
2024/02/22 04:54:32;;;;;;;11.40;6.80;;;;;;;5.98;80.01;98036.06;226907;1271;22532;-72
2024/02/22 04:59:43;;;;;;;11.10;6.20;;;;;;;5.94;80.08;98033.77;226857;1271;22632;-72
2024/02/22 05:04:45;;;;;;;11.00;7.00;;;;;;;5.91;80.05;98027.48;226774;1273;22596;-74
2024/02/22 05:09:47;;;;;;;11.90;6.90;;;;;;;5.84;80.06;98020.42;226894;1269;25419;-73
2024/02/22 05:14:49;;;;;;;9.50;7.00;;;;;;;5.77;79.60;98006.04;226882;1273;22548;-73
2024/02/22 05:19:51;;;;;;;12.50;7.70;;;;;;;5.72;79.59;97998.98;226830;1271;22548;-74
2024/02/22 05:24:53;;;;;;;11.50;7.70;;;;;;;5.66;79.99;97999.44;226824;1272;22665;-73
2024/02/22 05:29:55;;;;;;;18.80;8.30;;;;;;;5.61;79.76;97998.68;226834;1274;22562;-73
2024/02/22 05:34:57;;;;;;;13.10;7.60;;;;;;;5.59;79.78;97982.12;226770;1273;22864;-73
2024/02/22 05:39:59;;;;;;;12.60;8.00;;;;;;;5.61;80.37;97977.03;226698;1275;22558;-73
2024/02/22 05:45:01;;;;;;;12.60;7.30;;;;;;;5.62;80.15;97965.29;226818;1270;22612;-73
2024/02/22 05:50:03;;;;;;;15.00;7.80;;;;;;;5.65;80.18;97955.85;226781;1271;22548;-73
2024/02/22 05:55:06;;;;;;;13.10;8.20;;;;;;;5.69;80.31;97952.61;226851;1271;23011;-74
2024/02/22 06:00:08;;;;;;;20.50;10.30;;;;;;;5.74;80.69;97944.59;226836;1271;22561;-74
2024/02/22 06:05:13;;;;;;;23.90;11.50;;;;;;;5.79;80.62;97948.92;226836;1271;22539;-73
2024/02/22 06:10:15;;;;;;;19.00;10.00;;;;;;;5.84;80.70;97943.95;226793;1274;22550;-73
2024/02/22 06:15:17;;;;;;;17.10;10.20;;;;;;;5.89;80.40;97942.48;226808;1268;25301;-73
2024/02/22 06:20:19;;;;;;;16.40;9.20;;;;;;;5.95;80.34;97935.41;226835;1274;22547;-74
2024/02/22 06:25:21;;;;;;;15.90;9.60;;;;;;;6.02;80.35;97933.83;226823;1273;22573;-74
2024/02/22 06:30:23;;;;;;;16.20;8.70;;;;;;;6.12;80.49;97923.39;226846;1269;22531;-73
2024/02/22 06:35:25;;;;;;;16.10;8.60;;;;;;;6.24;80.49;97913.99;226754;1271;22551;-73
2024/02/22 06:40:27;;;;;;;14.20;8.70;;;;;;;6.37;80.57;97906.93;226834;1273;22645;-72
2024/02/22 06:45:28;;;;;;;13.20;8.10;;;;;;;6.46;80.29;97908.42;226752;1275;22698;-73
2024/02/22 06:50:30;;;;;;;12.20;7.00;;;;;;;6.54;80.28;97905.86;226768;1275;24902;-73
2024/02/22 06:55:33;;;;;;;12.30;7.60;;;;;;;6.62;80.00;97905.92;226541;1252;22589;-74
2024/02/22 07:00:35;;;;;;;14.80;9.60;;;;;;;6.68;79.75;97904.48;226206;1255;22543;-74
2024/02/22 07:05:37;;;;;;;17.70;10.50;;;;;;;6.76;79.75;97898.72;226499;1252;22573;-72
2024/02/22 07:10:39;;;;;;;13.50;8.70;;;;;;;6.82;79.28;97895.48;226549;1268;25370;-72
2024/02/22 07:15:41;;;;;;;28.50;21.50;;;;;;;6.90;78.98;97890.95;226297;1268;25236;-72
2024/02/22 07:20:43;;;;;;;19.00;9.90;;;;;;;7.07;79.31;97882.30;225964;1268;23085;-73
2024/02/22 07:25:45;;;;;;;13.30;8.30;;;;;;;7.31;79.75;97868.14;226070;1262;22564;-72
2024/02/22 07:30:47;;;;;;;13.40;8.50;;;;;;;7.54;79.25;97855.81;226338;1268;22669;-75
2024/02/22 07:35:50;;;;;;;17.90;9.90;;;;;;;7.71;78.82;97847.98;226628;1267;25304;-73
2024/02/22 07:40:54;;;;;;;19.60;11.10;;;;;;;7.87;78.26;97850.22;226597;1255;22562;-74
2024/02/22 07:45:56;;;;;;;17.80;10.30;;;;;;;8.01;78.38;97850.45;226703;1268;24946;-72
2024/02/22 07:50:58;;;;;;;17.40;9.10;;;;;;;8.13;77.90;97840.77;226567;1269;22554;-72
2024/02/22 07:56:05;;;;;;;11.90;7.90;;;;;;;8.22;77.78;97836.75;226327;1272;22592;-73
2024/02/22 08:01:06;;;;;;;13.30;7.60;;;;;;;8.29;77.58;97832.70;226512;1261;22570;-73
2024/02/22 08:06:10;;;;;;;12.40;6.80;;;;;;;8.32;77.03;97826.32;226405;1269;22567;-74
2024/02/22 08:11:12;;;;;;;12.30;7.60;;;;;;;8.39;76.84;97819.11;226199;1265;22546;-73
2024/02/22 08:16:14;;;;;;;13.40;7.80;;;;;;;8.50;77.02;97811.17;226312;1274;24252;-72
2024/02/22 08:21:21;;;;;;;13.60;7.80;;;;;;;8.64;76.57;97799.73;226286;1268;22549;-74
2024/02/22 08:26:23;;;;;;;14.30;8.70;;;;;;;8.85;76.87;97798.20;226309;1274;22667;-77
2024/02/22 08:31:25;;;;;;;15.50;9.70;;;;;;;9.03;76.62;97787.05;226478;1271;22546;-73
2024/02/22 08:36:27;;;;;;;15.00;9.50;;;;;;;9.20;76.20;97780.77;226549;1263;22547;-75
2024/02/22 08:41:29;;;;;;;17.70;9.60;;;;;;;9.39;76.23;97774.84;226346;1274;22539;-75
2024/02/22 08:46:32;;;;;;;16.40;9.10;;;;;;;9.62;76.02;97763.84;226541;1269;22540;-75
2024/02/22 08:51:36;;;;;;;13.10;8.10;;;;;;;9.83;76.13;97752.17;226542;1269;22539;-75
2024/02/22 08:56:38;;;;;;;10.70;6.90;;;;;;;10.05;75.84;97743.40;226310;1268;22532;-75
2024/02/22 09:01:40;;;;;;;15.00;7.70;;;;;;;10.23;75.34;97726.98;226370;1274;22546;-75
2024/02/22 09:06:43;;;;;;;13.00;7.40;;;;;;;10.43;74.97;97708.06;226443;1270;22562;-76
2024/02/22 09:11:46;;;;;;;15.30;8.70;;;;;;;10.63;74.61;97698.16;226315;1264;22547;-76
2024/02/22 09:16:49;;;;;;;15.90;8.40;;;;;;;10.81;74.05;97691.30;226393;1267;22554;-76
2024/02/22 09:21:54;;;;;;;12.70;8.10;;;;;;;10.91;73.27;97696.63;226429;1268;22566;-75
2024/02/22 09:26:57;;;;;;;12.40;7.90;;;;;;;10.97;72.58;97695.49;226248;1269;22551;-76
2024/02/22 09:31:59;;;;;;;15.60;8.10;;;;;;;10.99;71.86;97692.38;226414;1252;22564;-76
2024/02/22 09:37:02;;;;;;;15.40;8.80;;;;;;;11.02;71.84;97684.05;226427;1264;22540;-76
2024/02/22 09:42:05;;;;;;;15.00;8.30;;;;;;;11.04;71.62;97668.20;226421;1256;22645;-76
2024/02/22 09:47:08;;;;;;;15.30;7.80;;;;;;;11.06;71.44;97657.66;226330;1269;22558;-76
2024/02/22 09:52:14;;;;;;;14.20;8.10;;;;;;;11.10;71.29;97649.59;226440;1271;22559;-74
2024/02/22 09:57:17;;;;;;;12.70;7.40;;;;;;;11.18;71.42;97640.20;226438;1255;22956;-75
2024/02/22 10:02:19;;;;;;;11.70;7.60;;;;;;;11.20;70.73;97633.92;226287;1265;22539;-75
2024/02/22 10:07:25;;;;;;;11.00;7.20;;;;;;;11.19;70.75;97627.95;226373;1267;22548;-75
2024/02/22 10:12:32;;;;;;;13.80;7.00;;;;;;;11.28;70.88;97627.02;226148;1267;23209;-75
2024/02/22 10:17:37;;;;;;;11.70;6.60;;;;;;;11.46;70.47;97627.45;226205;1271;22611;-75
2024/02/22 10:22:40;;;;;;;10.70;6.30;;;;;;;11.60;70.02;97616.20;226170;1268;24452;-75
2024/02/22 10:27:49;;;;;;;9.50;5.70;;;;;;;11.69;69.64;97602.63;226476;1265;22692;-75
2024/02/22 10:32:55;;;;;;;7.80;4.90;;;;;;;11.76;69.23;97599.48;226430;1252;24269;-75
2024/02/22 10:37:57;;;;;;;25.90;20.60;;;;;;;11.81;68.78;97596.67;226176;1255;22562;-76
2024/02/22 10:43:00;;;;;;;7.50;5.40;;;;;;;11.85;68.58;97585.27;226255;1265;22586;-74
2024/02/22 10:48:08;;;;;;;11.20;5.90;;;;;;;11.90;68.58;97584.23;226333;1256;22558;-75
2024/02/22 10:53:14;;;;;;;8.90;5.10;;;;;;;11.94;68.47;97577.79;226464;1269;24500;-75
2024/02/22 10:58:23;;;;;;;6.90;4.40;;;;;;;11.94;68.13;97567.73;226350;1263;22722;-76
2024/02/22 11:03:31;;;;;;;8.70;5.10;;;;;;;11.94;67.93;97548.51;226353;1256;22585;-75
2024/02/22 11:08:33;;;;;;;6.50;4.40;;;;;;;11.99;67.98;97535.12;226333;1268;22558;-75
2024/02/22 11:13:36;;;;;;;6.20;3.90;;;;;;;12.12;67.56;97528.55;226307;1271;22558;-75
2024/02/22 11:18:38;;;;;;;5.00;3.60;;;;;;;12.28;66.86;97523.80;226160;1259;22584;-75
2024/02/22 11:23:40;;;;;;;5.30;4.00;;;;;;;12.51;67.16;97523.37;226171;1269;22553;-75
2024/02/22 11:28:51;;;;;;;5.50;4.00;;;;;;;12.73;66.10;97519.93;226086;1255;22549;-76
2024/02/22 11:33:58;;;;;;;5.20;3.60;;;;;;;12.78;64.88;97510.43;226392;1269;22561;-77
2024/02/22 11:39:01;;;;;;;6.40;4.20;;;;;;;12.77;64.09;97497.42;226344;1259;22564;-76
2024/02/22 11:44:05;;;;;;;9.80;4.70;;;;;;;12.74;64.33;97479.95;226468;1268;22548;-77
2024/02/22 11:49:08;;;;;;;7.90;4.90;;;;;;;12.74;64.17;97475.92;226481;1265;22551;-76
2024/02/22 11:54:15;;;;;;;9.00;6.20;;;;;;;12.79;64.48;97481.17;226476;1263;23054;-76
2024/02/22 11:59:17;;;;;;;9.90;5.80;;;;;;;12.78;64.11;97467.34;226523;1255;22558;-75
2024/02/22 12:04:20;;;;;;;7.10;4.80;;;;;;;12.78;63.84;97450.62;226447;1256;22546;-76
2024/02/22 12:09:23;;;;;;;9.70;5.60;;;;;;;12.77;64.29;97441.65;226455;1257;22566;-75
2024/02/22 12:14:25;;;;;;;10.30;5.60;;;;;;;12.78;64.07;97426.57;226440;1253;22554;-76
2024/02/22 12:19:29;;;;;;;9.90;5.90;;;;;;;12.67;63.45;97419.25;226450;1268;22550;-77
2024/02/22 12:24:34;;;;;;;9.30;5.80;;;;;;;12.47;63.51;97416.58;226417;1256;22547;-73
2024/02/22 12:29:36;;;;;;;8.50;5.30;;;;;;;12.29;63.57;97424.95;226286;1257;22557;-74
2024/02/22 12:34:39;;;;;;;7.80;5.20;;;;;;;12.14;63.64;97431.95;226438;1271;22556;-75
2024/02/22 12:39:41;;;;;;;10.60;6.20;;;;;;;11.96;64.12;97430.06;226623;1265;23054;-74
2024/02/22 12:44:43;;;;;;;8.70;6.00;;;;;;;11.87;64.10;97415.67;226510;1273;22568;-74
2024/02/22 12:49:45;;;;;;;8.50;6.00;;;;;;;11.80;64.28;97413.39;226513;1257;22550;-75
2024/02/22 12:54:47;;;;;;;8.90;5.80;;;;;;;11.77;64.00;97406.75;226467;1268;22551;-75
2024/02/22 12:59:49;;;;;;;7.90;5.60;;;;;;;11.76;64.30;97399.44;226500;1271;22639;-75
2024/02/22 13:04:51;;;;;;;8.40;5.80;;;;;;;11.76;63.54;97389.35;226442;1271;22641;-75
2024/02/22 13:09:53;;;;;;;9.10;6.60;;;;;;;11.71;63.52;97386.38;226586;1263;22536;-74
2024/02/22 13:14:55;;;;;;;8.30;6.20;;;;;;;11.67;64.11;97386.97;226533;1274;22554;-74
2024/02/22 13:19:57;;;;;;;7.00;6.30;;;;;;;11.66;63.85;97379.53;226424;1269;22653;-75
2024/02/22 13:24:59;;;;;;;11.30;6.10;;;;;;;11.61;64.32;97373.34;226318;1270;22566;-74
2024/02/22 13:30:03;;;;;;;9.70;6.70;;;;;;;11.55;64.54;97365.30;226512;1261;22573;-73
2024/02/22 13:35:06;;;;;;;8.40;6.40;;;;;;;11.47;64.46;97355.66;226604;1273;22580;-73
2024/02/22 13:40:09;;;;;;;10.20;6.70;;;;;;;11.42;64.83;97345.95;226499;1265;22545;-73
2024/02/22 13:45:16;;;;;;;11.70;6.50;;;;;;;11.39;65.12;97335.55;226575;1275;22571;-73
2024/02/22 13:50:18;;;;;;;9.30;6.90;;;;;;;11.37;64.85;97317.76;226506;1256;23649;-73
2024/02/22 13:55:21;;;;;;;10.20;6.50;;;;;;;11.36;64.44;97312.98;226229;1256;22546;-74
2024/02/22 14:00:24;;;;;;;7.40;6.50;;;;;;;11.37;64.52;97305.43;226442;1265;22547;-73
2024/02/22 14:05:28;;;;;;;7.90;6.00;;;;;;;11.32;64.47;97297.08;226495;1271;22582;-73
2024/02/22 14:10:30;;;;;;;10.20;6.60;;;;;;;11.23;64.40;97289.14;226251;1267;206017;-73
2024/02/22 14:15:33;;;;;;;7.00;6.20;;;;;;;11.12;64.58;97279.90;226272;1267;22557;-73
2024/02/22 14:20:35;;;;;;;7.60;6.30;;;;;;;11.00;64.81;97275.41;226065;1263;22582;-73
2024/02/22 14:25:37;;;;;;;8.50;6.80;;;;;;;10.91;65.60;97253.87;226412;1264;22534;-74
2024/02/22 14:30:39;;;;;;;63.00;49.10;;;;;;;10.88;65.77;97253.31;226571;1263;25529;-75
2024/02/22 14:35:43;;;;;;;10.40;7.60;;;;;;;10.76;66.05;97250.91;226436;1267;23291;-75
2024/02/22 14:40:48;;;;;;;11.00;7.40;;;;;;;10.64;66.13;97247.55;226547;1267;22618;-74
2024/02/22 14:45:53;;;;;;;9.20;7.20;;;;;;;10.50;66.01;97243.96;226505;1257;22550;-74
2024/02/22 14:50:55;;;;;;;9.00;7.50;;;;;;;10.42;66.55;97241.96;226528;1269;22564;-74
2024/02/22 14:55:57;;;;;;;9.00;7.70;;;;;;;10.36;66.86;97230.29;226503;1267;22530;-74
2024/02/22 15:00:59;;;;;;;10.30;7.70;;;;;;;10.29;66.85;97221.23;226265;1271;24295;-73
2024/02/22 15:06:01;;;;;;;9.90;7.30;;;;;;;10.19;66.59;97220.59;226144;1273;22546;-74
2024/02/22 15:11:11;;;;;;;10.90;7.80;;;;;;;10.02;66.93;97219.70;226147;1273;23495;-75
2024/02/22 15:16:13;;;;;;;11.50;8.20;;;;;;;9.88;67.48;97214.64;226669;1273;22652;-75
2024/02/22 15:21:15;;;;;;;10.00;8.00;;;;;;;9.81;67.51;97208.23;226896;1275;22549;-75
2024/02/22 15:26:17;;;;;;;8.00;7.00;;;;;;;9.73;67.31;97202.21;226850;1275;22551;-73
2024/02/22 15:31:19;;;;;;;9.30;7.10;;;;;;;9.66;67.79;97188.45;226843;1267;24304;-74
2024/02/22 15:36:21;;;;;;;9.50;6.40;;;;;;;9.61;68.05;97175.98;226711;1275;22542;-74
2024/02/22 15:41:24;;;;;;;10.20;7.30;;;;;;;9.57;68.15;97167.22;226614;1274;22604;-74
2024/02/22 15:46:26;;;;;;;9.40;6.80;;;;;;;9.50;68.57;97161.14;226900;1267;22546;-74
2024/02/22 15:51:28;;;;;;;9.70;8.00;;;;;;;9.44;68.71;97154.59;226688;1275;22629;-74
2024/02/22 15:56:30;;;;;;;11.50;8.70;;;;;;;9.39;69.15;97150.52;226858;1273;22562;-75
2024/02/22 16:01:32;;;;;;;13.90;8.50;;;;;;;9.33;69.41;97139.45;226818;1273;22612;-74
2024/02/22 16:06:35;;;;;;;12.70;8.20;;;;;;;9.22;69.48;97139.45;226663;1274;22541;-74
2024/02/22 16:11:36;;;;;;;12.30;8.90;;;;;;;9.09;70.01;97134.95;226742;1275;22542;-75
2024/02/22 16:16:39;;;;;;;11.90;8.40;;;;;;;8.98;70.19;97136.90;226838;1267;22572;-74
2024/02/22 16:21:42;;;;;;;12.20;8.70;;;;;;;8.85;70.69;97137.67;226942;1269;22581;-75
2024/02/22 16:26:44;;;;;;;11.50;8.40;;;;;;;8.73;71.42;97129.15;226689;1273;22558;-74
2024/02/22 16:31:46;;;;;;;11.20;8.70;;;;;;;8.66;71.74;97108.12;226831;1273;23178;-74
2024/02/22 16:36:49;;;;;;;13.50;9.20;;;;;;;8.59;71.87;97115.43;226766;1273;22603;-74
2024/02/22 16:41:52;;;;;;;12.60;9.00;;;;;;;8.52;72.46;97129.38;226947;1273;23243;-75
2024/02/22 16:46:54;;;;;;;11.00;8.80;;;;;;;8.47;72.72;97128.33;226766;1273;22547;-76
2024/02/22 16:51:56;;;;;;;11.50;9.00;;;;;;;8.42;72.81;97118.83;226888;1272;22585;-74
2024/02/22 16:56:58;;;;;;;14.70;10.40;;;;;;;8.38;73.27;97107.79;226860;1273;22545;-73
2024/02/22 17:02:02;;;;;;;13.90;10.40;;;;;;;8.34;73.50;97091.63;226741;1274;22543;-74
2024/02/22 17:07:16;;;;;;;13.30;9.60;;;;;;;8.25;73.42;97087.27;226786;1271;22533;-75
2024/02/22 17:12:19;;;;;;;14.60;10.40;;;;;;;8.16;73.76;97076.25;226859;1272;23121;-74
2024/02/22 17:17:21;;;;;;;16.30;10.80;;;;;;;8.07;73.69;97074.61;226847;1273;22546;-74
2024/02/22 17:22:23;;;;;;;23.40;13.50;;;;;;;8.01;74.00;97062.52;226934;1272;23123;-75
2024/02/22 17:27:26;;;;;;;22.40;14.40;;;;;;;7.95;73.94;97056.39;226763;1273;22555;-75
2024/02/22 17:32:31;;;;;;;22.10;12.90;;;;;;;7.89;74.26;97049.91;226871;1272;25438;-75
2024/02/22 17:37:33;;;;;;;16.50;10.30;;;;;;;7.83;74.28;97044.27;226766;1269;22557;-74
2024/02/22 17:42:35;;;;;;;16.80;11.20;;;;;;;7.77;74.74;97037.58;226668;1273;22546;-74
2024/02/22 17:47:37;;;;;;;18.90;12.00;;;;;;;7.73;74.68;97040.36;226926;1263;23011;-74
2024/02/22 17:52:41;;;;;;;16.00;11.30;;;;;;;7.71;75.01;97040.35;226846;1271;25429;-74
2024/02/22 17:57:43;;;;;;;16.10;11.00;;;;;;;7.68;75.40;97038.37;226722;1270;22538;-73
2024/02/22 18:02:47;;;;;;;17.60;12.30;;;;;;;7.67;75.29;97039.48;226936;1274;22573;-75
2024/02/22 18:08:07;;;;;;;16.80;12.10;;;;;;;7.65;75.55;97031.96;226764;1272;22559;-74
2024/02/22 18:13:11;;;;;;;16.90;12.10;;;;;;;7.63;75.50;97031.98;226809;1273;22698;-74
2024/02/22 18:18:14;;;;;;;15.10;11.20;;;;;;;7.60;75.44;97014.48;226946;1272;22565;-74
2024/02/22 18:23:18;;;;;;;16.90;11.20;;;;;;;7.57;75.77;97009.17;226936;1257;22534;-76
2024/02/22 18:28:20;;;;;;;16.60;12.20;;;;;;;7.52;76.10;97001.04;226966;1272;22582;-73
2024/02/22 18:33:22;;;;;;;18.60;12.70;;;;;;;7.46;76.14;96990.31;226836;1273;22575;-75
2024/02/22 18:38:28;;;;;;;18.00;12.50;;;;;;;7.41;76.17;96984.29;226910;1270;22543;-76
2024/02/22 18:43:30;;;;;;;18.20;12.20;;;;;;;7.40;76.94;96970.77;226888;1274;22560;-74
2024/02/22 18:48:32;;;;;;;17.30;11.80;;;;;;;7.42;76.69;96973.89;226866;1275;24258;-76
2024/02/22 18:53:35;;;;;;;14.90;10.60;;;;;;;7.48;76.52;96971.04;226740;1274;25291;-75
2024/02/22 18:58:37;;;;;;;13.80;9.90;;;;;;;7.55;76.77;96964.27;226746;1272;22559;-75
2024/02/22 19:03:39;;;;;;;12.20;9.60;;;;;;;7.61;76.76;96956.28;226901;1275;22562;-75
2024/02/22 19:08:42;;;;;;;12.40;9.20;;;;;;;7.67;76.94;96950.55;226904;1275;24833;-74
2024/02/22 19:13:44;;;;;;;13.10;9.60;;;;;;;7.72;77.14;96943.58;226887;1271;22561;-75
2024/02/22 19:18:48;;;;;;;12.70;9.40;;;;;;;7.75;76.72;96939.39;226752;1272;22546;-75
2024/02/22 19:23:50;;;;;;;13.60;9.60;;;;;;;7.79;76.99;96933.34;226775;1273;23116;-75
2024/02/22 19:28:52;;;;;;;12.40;8.60;;;;;;;7.80;77.05;96922.05;226734;1274;22561;-75
2024/02/22 19:33:55;;;;;;;12.40;8.00;;;;;;;7.80;76.91;96917.04;226741;1274;25076;-74
2024/02/22 19:38:57;;;;;;;11.90;8.10;;;;;;;7.78;76.89;96912.23;226736;1268;22625;-75
2024/02/22 19:43:59;;;;;;;14.60;9.00;;;;;;;7.75;77.19;96899.64;226982;1267;22572;-74
2024/02/22 19:49:01;;;;;;;14.20;8.30;;;;;;;7.71;77.26;96890.90;226718;1274;22692;-74
2024/02/22 19:54:05;;;;;;;8.90;6.20;;;;;;;7.68;77.12;96884.88;226720;1273;22562;-74
2024/02/22 19:59:09;;;;;;;9.80;6.00;;;;;;;7.67;77.24;96876.11;226880;1267;22555;-76
2024/02/22 20:04:11;;;;;;;8.00;5.30;;;;;;;7.67;77.34;96867.34;226749;1270;22547;-74
2024/02/22 20:09:13;;;;;;;9.10;5.60;;;;;;;7.69;77.44;96861.45;226878;1271;26654;-75
2024/02/22 20:14:15;;;;;;;8.20;5.10;;;;;;;7.69;77.95;96858.87;227017;1274;25425;-74
2024/02/22 20:19:18;;;;;;;7.90;5.00;;;;;;;7.65;77.78;96854.45;226786;1268;22591;-75
2024/02/22 20:24:20;;;;;;;8.90;5.30;;;;;;;7.64;78.04;96849.37;226748;1274;22590;-76
2024/02/22 20:29:23;;;;;;;8.70;5.40;;;;;;;7.66;78.24;96853.16;226934;1267;25913;-74
2024/02/22 20:34:25;;;;;;;8.40;5.50;;;;;;;7.66;78.07;96852.27;226828;1271;24271;-74
2024/02/22 20:39:27;;;;;;;9.30;5.40;;;;;;;7.65;78.15;96844.52;226762;1274;22542;-75
2024/02/22 20:44:29;;;;;;;7.00;5.00;;;;;;;7.65;78.23;96839.02;226706;1273;22574;-75
2024/02/22 20:49:32;;;;;;;8.80;4.90;;;;;;;7.65;78.32;96836.09;226891;1273;22570;-74
2024/02/22 20:54:33;;;;;;;7.20;5.30;;;;;;;7.64;78.36;96834.17;226908;1273;25526;-73
2024/02/22 20:59:36;;;;;;;7.50;5.10;;;;;;;7.62;78.58;96836.69;226863;1271;25278;-74
2024/02/22 21:04:38;;;;;;;7.60;4.50;;;;;;;7.64;79.18;96842.49;226909;1271;22544;-75
2024/02/22 21:09:40;;;;;;;6.50;4.50;;;;;;;7.72;79.13;96841.08;226715;1274;22526;-72
2024/02/22 21:14:42;;;;;;;7.30;4.40;;;;;;;7.80;79.47;96845.65;226892;1271;22583;-73
2024/02/22 21:19:44;;;;;;;4.20;3.10;;;;;;;7.90;79.47;96845.45;226723;1273;24987;-74
2024/02/22 21:24:47;;;;;;;5.70;3.40;;;;;;;8.00;79.75;96843.66;226928;1270;22553;-74
2024/02/22 21:29:50;;;;;;;5.60;3.30;;;;;;;8.10;79.86;96842.38;226839;1268;23361;-74
2024/02/22 21:34:52;;;;;;;3.90;2.70;;;;;;;8.20;79.78;96838.05;226709;1273;22554;-74
2024/02/22 21:39:58;;;;;;;4.70;2.90;;;;;;;8.30;79.77;96843.73;226948;1274;22557;-73
2024/02/22 21:45:01;;;;;;;2.80;2.50;;;;;;;8.46;79.45;96857.48;226944;1271;22557;-74
2024/02/22 21:50:04;;;;;;;4.70;3.10;;;;;;;8.60;78.92;96868.88;226750;1274;22804;-73
2024/02/22 21:55:07;;;;;;;3.70;2.80;;;;;;;8.70;78.69;96871.35;226747;1268;22598;-75
2024/02/22 22:00:09;;;;;;;4.50;3.10;;;;;;;8.75;78.58;96869.02;226797;1273;22535;-73
2024/02/22 22:05:11;;;;;;;5.10;3.60;;;;;;;8.76;78.28;96867.77;226897;1269;22553;-74
2024/02/22 22:10:14;;;;;;;4.10;3.40;;;;;;;8.77;78.31;96866.41;226670;1273;22589;-74
2024/02/22 22:15:16;;;;;;;5.30;3.30;;;;;;;8.77;77.99;96848.95;226933;1274;22561;-74
2024/02/22 22:20:18;;;;;;;5.20;4.10;;;;;;;8.75;77.90;96841.95;226930;1274;22616;-74
2024/02/22 22:25:21;;;;;;;8.20;4.90;;;;;;;8.71;78.05;96846.63;226766;1274;22588;-74
2024/02/22 22:30:22;;;;;;;7.70;4.90;;;;;;;8.65;78.05;96848.79;226800;1274;22546;-74
2024/02/22 22:35:24;;;;;;;8.60;5.20;;;;;;;8.60;78.17;96850.55;226864;1274;22546;-74
2024/02/22 22:40:27;;;;;;;9.20;5.60;;;;;;;8.54;78.10;96848.52;226939;1270;22550;-75
2024/02/22 22:45:29;;;;;;;8.50;5.50;;;;;;;8.51;78.21;96852.56;226661;1271;22636;-74
2024/02/22 22:50:31;;;;;;;9.20;5.30;;;;;;;8.48;78.22;96850.11;226807;1261;22568;-74
2024/02/22 22:55:33;;;;;;;9.90;5.90;;;;;;;8.46;78.18;96849.23;226935;1272;23063;-74
2024/02/22 23:00:35;;;;;;;10.90;6.30;;;;;;;8.46;78.31;96844.80;226909;1271;22587;-74
2024/02/22 23:05:37;;;;;;;10.90;6.70;;;;;;;8.45;78.28;96848.10;226876;1272;22550;-74
2024/02/22 23:10:39;;;;;;;9.20;6.50;;;;;;;8.43;77.92;96846.11;226746;1273;25412;-75
2024/02/22 23:15:42;;;;;;;9.50;6.50;;;;;;;8.40;78.27;96847.34;226941;1271;22580;-74
2024/02/22 23:20:44;;;;;;;10.60;7.20;;;;;;;8.38;78.29;96847.34;226874;1268;23033;-74
2024/02/22 23:25:46;;;;;;;11.80;6.50;;;;;;;8.38;78.29;96842.48;226737;1272;25970;-74